sensor_id;sensor_type;location;lat;lon;timestamp;temperature;humidity
14349;DHT22;7258;50.376;8.742;2022-09-09T00:01:23;16.00;99.90
14349;DHT22;7258;50.376;8.742;2022-09-09T00:03:38;16.00;99.90
14349;DHT22;7258;50.376;8.742;2022-09-09T00:05:49;16.00;99.90
14349;DHT22;7258;50.376;8.742;2022-09-09T00:07:56;15.90;99.90
14349;DHT22;7258;50.376;8.742;2022-09-09T00:10:09;15.90;99.90
14349;DHT22;7258;50.376;8.742;2022-09-09T00:12:21;15.90;99.90
14349;DHT22;7258;50.376;8.742;2022-09-09T00:14:42;15.90;99.90
14349;DHT22;7258;50.376;8.742;2022-09-09T00:16:50;15.90;99.90
14349;DHT22;7258;50.376;8.742;2022-09-09T00:19:00;15.90;99.90
14349;DHT22;7258;50.376;8.742;2022-09-09T00:21:07;15.90;99.90
14349;DHT22;7258;50.376;8.742;2022-09-09T00:23:12;15.90;99.90
14349;DHT22;7258;50.376;8.742;2022-09-09T00:25:21;15.90;99.90
14349;DHT22;7258;50.376;8.742;2022-09-09T00:27:29;16.00;99.90
14349;DHT22;7258;50.376;8.742;2022-09-09T00:29:38;16.00;99.90
14349;DHT22;7258;50.376;8.742;2022-09-09T00:31:44;16.00;99.90
14349;DHT22;7258;50.376;8.742;2022-09-09T00:33:49;16.10;99.90
14349;DHT22;7258;50.376;8.742;2022-09-09T00:35:57;16.10;99.90
14349;DHT22;7258;50.376;8.742;2022-09-09T00:38:03;16.10;99.90
14349;DHT22;7258;50.376;8.742;2022-09-09T00:40:21;16.10;99.90
14349;DHT22;7258;50.376;8.742;2022-09-09T00:42:27;16.10;99.90
14349;DHT22;7258;50.376;8.742;2022-09-09T00:44:36;16.20;99.90
14349;DHT22;7258;50.376;8.742;2022-09-09T00:47:04;16.20;99.90
14349;DHT22;7258;50.376;8.742;2022-09-09T00:49:18;16.10;99.90
14349;DHT22;7258;50.376;8.742;2022-09-09T00:51:29;16.10;99.90
14349;DHT22;7258;50.376;8.742;2022-09-09T00:53:39;16.00;99.90
14349;DHT22;7258;50.376;8.742;2022-09-09T00:55:48;16.00;99.90
14349;DHT22;7258;50.376;8.742;2022-09-09T00:57:52;15.90;99.90
14349;DHT22;7258;50.376;8.742;2022-09-09T01:00:16;15.90;99.90
14349;DHT22;7258;50.376;8.742;2022-09-09T01:02:27;15.80;99.90
14349;DHT22;7258;50.376;8.742;2022-09-09T01:04:34;15.80;99.90
14349;DHT22;7258;50.376;8.742;2022-09-09T01:06:39;15.80;99.90
14349;DHT22;7258;50.376;8.742;2022-09-09T01:09:04;15.80;99.90
14349;DHT22;7258;50.376;8.742;2022-09-09T01:11:12;15.80;99.90
14349;DHT22;7258;50.376;8.742;2022-09-09T01:13:23;15.80;99.90
14349;DHT22;7258;50.376;8.742;2022-09-09T01:15:30;15.70;99.90
14349;DHT22;7258;50.376;8.742;2022-09-09T01:17:39;15.70;99.90
14349;DHT22;7258;50.376;8.742;2022-09-09T01:19:54;15.70;99.90
14349;DHT22;7258;50.376;8.742;2022-09-09T01:22:03;15.60;99.90
14349;DHT22;7258;50.376;8.742;2022-09-09T01:24:19;15.60;99.90
14349;DHT22;7258;50.376;8.742;2022-09-09T01:26:26;15.60;99.90
14349;DHT22;7258;50.376;8.742;2022-09-09T01:28:31;15.50;99.90
14349;DHT22;7258;50.376;8.742;2022-09-09T01:30:38;15.50;99.90
14349;DHT22;7258;50.376;8.742;2022-09-09T01:32:44;15.50;99.90
14349;DHT22;7258;50.376;8.742;2022-09-09T01:34:47;15.50;99.90
14349;DHT22;7258;50.376;8.742;2022-09-09T01:36:56;15.50;99.90
14349;DHT22;7258;50.376;8.742;2022-09-09T01:38:59;15.40;99.90
14349;DHT22;7258;50.376;8.742;2022-09-09T01:41:02;15.40;99.90
14349;DHT22;7258;50.376;8.742;2022-09-09T01:43:07;15.40;99.90
14349;DHT22;7258;50.376;8.742;2022-09-09T01:45:10;15.40;99.90
14349;DHT22;7258;50.376;8.742;2022-09-09T01:47:13;15.30;99.90
14349;DHT22;7258;50.376;8.742;2022-09-09T01:49:17;15.30;99.90
14349;DHT22;7258;50.376;8.742;2022-09-09T01:51:20;15.30;99.90
14349;DHT22;7258;50.376;8.742;2022-09-09T01:53:22;15.30;99.90
14349;DHT22;7258;50.376;8.742;2022-09-09T01:55:30;15.30;99.90
14349;DHT22;7258;50.376;8.742;2022-09-09T01:57:37;15.30;99.90
14349;DHT22;7258;50.376;8.742;2022-09-09T02:00:03;15.30;99.90
14349;DHT22;7258;50.376;8.742;2022-09-09T02:02:10;15.30;99.90
14349;DHT22;7258;50.376;8.742;2022-09-09T02:04:27;15.20;99.90
14349;DHT22;7258;50.376;8.742;2022-09-09T02:06:35;15.20;99.90
14349;DHT22;7258;50.376;8.742;2022-09-09T02:08:42;15.20;99.90
14349;DHT22;7258;50.376;8.742;2022-09-09T02:10:55;15.10;99.90
14349;DHT22;7258;50.376;8.742;2022-09-09T02:13:02;15.10;99.90
14349;DHT22;7258;50.376;8.742;2022-09-09T02:15:17;15.10;99.90
14349;DHT22;7258;50.376;8.742;2022-09-09T02:17:26;15.10;99.90
14349;DHT22;7258;50.376;8.742;2022-09-09T02:19:32;15.10;99.90
14349;DHT22;7258;50.376;8.742;2022-09-09T02:21:38;15.10;99.90
14349;DHT22;7258;50.376;8.742;2022-09-09T02:23:43;15.10;99.90
14349;DHT22;7258;50.376;8.742;2022-09-09T02:25:49;15.10;99.90
14349;DHT22;7258;50.376;8.742;2022-09-09T02:27:53;15.10;99.90
14349;DHT22;7258;50.376;8.742;2022-09-09T02:29:56;15.10;99.90
14349;DHT22;7258;50.376;8.742;2022-09-09T02:32:06;15.10;99.90
14349;DHT22;7258;50.376;8.742;2022-09-09T02:34:11;15.10;99.90
14349;DHT22;7258;50.376;8.742;2022-09-09T02:36:15;15.10;99.90
14349;DHT22;7258;50.376;8.742;2022-09-09T02:38:19;15.20;99.90
14349;DHT22;7258;50.376;8.742;2022-09-09T02:40:23;15.20;99.90
14349;DHT22;7258;50.376;8.742;2022-09-09T02:42:26;15.10;99.90
14349;DHT22;7258;50.376;8.742;2022-09-09T02:44:28;15.20;99.90
14349;DHT22;7258;50.376;8.742;2022-09-09T02:46:41;15.20;99.90
14349;DHT22;7258;50.376;8.742;2022-09-09T02:48:55;15.20;99.90
14349;DHT22;7258;50.376;8.742;2022-09-09T02:51:08;15.20;99.90
14349;DHT22;7258;50.376;8.742;2022-09-09T02:53:16;15.20;99.90
14349;DHT22;7258;50.376;8.742;2022-09-09T02:55:27;15.20;99.90
14349;DHT22;7258;50.376;8.742;2022-09-09T02:57:31;15.20;99.90
14349;DHT22;7258;50.376;8.742;2022-09-09T02:59:35;15.20;99.90
14349;DHT22;7258;50.376;8.742;2022-09-09T03:01:38;15.20;99.90
14349;DHT22;7258;50.376;8.742;2022-09-09T03:03:41;15.20;99.90
14349;DHT22;7258;50.376;8.742;2022-09-09T03:05:47;15.30;99.90
14349;DHT22;7258;50.376;8.742;2022-09-09T03:07:49;15.30;99.90
14349;DHT22;7258;50.376;8.742;2022-09-09T03:09:52;15.30;99.90
14349;DHT22;7258;50.376;8.742;2022-09-09T03:11:56;15.30;99.90
14349;DHT22;7258;50.376;8.742;2022-09-09T03:13:59;15.30;99.90
14349;DHT22;7258;50.376;8.742;2022-09-09T03:16:02;15.30;99.90
14349;DHT22;7258;50.376;8.742;2022-09-09T03:18:05;15.30;99.90
14349;DHT22;7258;50.376;8.742;2022-09-09T03:20:08;15.30;99.90
14349;DHT22;7258;50.376;8.742;2022-09-09T03:22:13;15.30;99.90
14349;DHT22;7258;50.376;8.742;2022-09-09T03:24:16;15.30;99.90
14349;DHT22;7258;50.376;8.742;2022-09-09T03:26:19;15.30;99.90
14349;DHT22;7258;50.376;8.742;2022-09-09T03:28:21;15.30;99.90
14349;DHT22;7258;50.376;8.742;2022-09-09T03:30:26;15.30;99.90
14349;DHT22;7258;50.376;8.742;2022-09-09T03:32:29;15.30;99.90
14349;DHT22;7258;50.376;8.742;2022-09-09T03:34:32;15.30;99.90
14349;DHT22;7258;50.376;8.742;2022-09-09T03:36:36;15.30;99.90
14349;DHT22;7258;50.376;8.742;2022-09-09T03:38:40;15.20;99.90
14349;DHT22;7258;50.376;8.742;2022-09-09T03:40:49;15.20;99.90
14349;DHT22;7258;50.376;8.742;2022-09-09T03:42:52;15.20;99.90
14349;DHT22;7258;50.376;8.742;2022-09-09T03:44:55;15.20;99.90
14349;DHT22;7258;50.376;8.742;2022-09-09T03:46:59;15.20;99.90
14349;DHT22;7258;50.376;8.742;2022-09-09T03:49:02;15.20;99.90
14349;DHT22;7258;50.376;8.742;2022-09-09T03:51:05;15.20;99.90
14349;DHT22;7258;50.376;8.742;2022-09-09T03:53:08;15.30;99.90
14349;DHT22;7258;50.376;8.742;2022-09-09T03:55:12;15.30;99.90
14349;DHT22;7258;50.376;8.742;2022-09-09T03:57:15;15.30;99.90
14349;DHT22;7258;50.376;8.742;2022-09-09T03:59:18;15.30;99.90
14349;DHT22;7258;50.376;8.742;2022-09-09T04:01:22;15.30;99.90
14349;DHT22;7258;50.376;8.742;2022-09-09T04:03:26;15.40;99.90
14349;DHT22;7258;50.376;8.742;2022-09-09T04:05:29;15.40;99.90
14349;DHT22;7258;50.376;8.742;2022-09-09T04:07:32;15.40;99.90
14349;DHT22;7258;50.376;8.742;2022-09-09T04:09:35;15.40;99.90
14349;DHT22;7258;50.376;8.742;2022-09-09T04:11:39;15.40;99.90
14349;DHT22;7258;50.376;8.742;2022-09-09T04:13:41;15.40;99.90
14349;DHT22;7258;50.376;8.742;2022-09-09T04:15:50;15.40;99.90
14349;DHT22;7258;50.376;8.742;2022-09-09T04:17:53;15.50;99.90
14349;DHT22;7258;50.376;8.742;2022-09-09T04:19:56;15.50;99.90
14349;DHT22;7258;50.376;8.742;2022-09-09T04:21:59;15.50;99.90
14349;DHT22;7258;50.376;8.742;2022-09-09T04:24:03;15.50;99.90
14349;DHT22;7258;50.376;8.742;2022-09-09T04:26:06;15.60;99.90
14349;DHT22;7258;50.376;8.742;2022-09-09T04:28:11;15.60;99.90
14349;DHT22;7258;50.376;8.742;2022-09-09T04:30:14;15.60;99.90
14349;DHT22;7258;50.376;8.742;2022-09-09T04:32:17;15.60;99.90
14349;DHT22;7258;50.376;8.742;2022-09-09T04:34:20;15.70;99.90
14349;DHT22;7258;50.376;8.742;2022-09-09T04:36:23;15.70;99.90
14349;DHT22;7258;50.376;8.742;2022-09-09T04:38:26;15.80;99.90
14349;DHT22;7258;50.376;8.742;2022-09-09T04:40:29;15.90;99.90
14349;DHT22;7258;50.376;8.742;2022-09-09T04:42:35;15.90;99.90
14349;DHT22;7258;50.376;8.742;2022-09-09T04:44:39;16.00;99.90
14349;DHT22;7258;50.376;8.742;2022-09-09T04:46:42;16.00;99.90
14349;DHT22;7258;50.376;8.742;2022-09-09T04:48:45;16.10;99.90
14349;DHT22;7258;50.376;8.742;2022-09-09T04:50:56;16.20;99.90
14349;DHT22;7258;50.376;8.742;2022-09-09T04:53:00;16.20;99.90
14349;DHT22;7258;50.376;8.742;2022-09-09T04:55:04;16.30;99.90
14349;DHT22;7258;50.376;8.742;2022-09-09T04:57:07;16.30;99.90
14349;DHT22;7258;50.376;8.742;2022-09-09T04:59:10;16.40;99.90
14349;DHT22;7258;50.376;8.742;2022-09-09T05:01:15;16.40;99.90
14349;DHT22;7258;50.376;8.742;2022-09-09T05:03:19;16.40;99.90
14349;DHT22;7258;50.376;8.742;2022-09-09T05:05:22;16.40;99.90
14349;DHT22;7258;50.376;8.742;2022-09-09T05:07:24;16.40;99.90
14349;DHT22;7258;50.376;8.742;2022-09-09T05:09:30;16.40;99.90
14349;DHT22;7258;50.376;8.742;2022-09-09T05:11:33;16.40;99.90
14349;DHT22;7258;50.376;8.742;2022-09-09T05:13:38;16.40;99.90
14349;DHT22;7258;50.376;8.742;2022-09-09T05:15:42;16.40;99.90
14349;DHT22;7258;50.376;8.742;2022-09-09T05:17:57;16.50;99.90
14349;DHT22;7258;50.376;8.742;2022-09-09T05:20:03;16.40;99.90
14349;DHT22;7258;50.376;8.742;2022-09-09T05:22:11;16.40;99.90
14349;DHT22;7258;50.376;8.742;2022-09-09T05:24:14;16.40;99.90
14349;DHT22;7258;50.376;8.742;2022-09-09T05:26:19;16.40;99.90
14349;DHT22;7258;50.376;8.742;2022-09-09T05:28:23;16.40;99.90
14349;DHT22;7258;50.376;8.742;2022-09-09T05:30:27;16.40;99.90
14349;DHT22;7258;50.376;8.742;2022-09-09T05:32:30;16.40;99.90
14349;DHT22;7258;50.376;8.742;2022-09-09T05:34:36;16.40;99.90
14349;DHT22;7258;50.376;8.742;2022-09-09T05:36:40;16.40;99.90
14349;DHT22;7258;50.376;8.742;2022-09-09T05:38:43;16.40;99.90
14349;DHT22;7258;50.376;8.742;2022-09-09T05:40:47;16.40;99.90
14349;DHT22;7258;50.376;8.742;2022-09-09T05:42:51;16.40;99.90
14349;DHT22;7258;50.376;8.742;2022-09-09T05:44:55;16.40;99.90
14349;DHT22;7258;50.376;8.742;2022-09-09T05:46:57;16.30;99.90
14349;DHT22;7258;50.376;8.742;2022-09-09T05:49:02;16.30;99.90
14349;DHT22;7258;50.376;8.742;2022-09-09T05:51:09;16.30;99.90
14349;DHT22;7258;50.376;8.742;2022-09-09T05:53:14;16.20;99.90
14349;DHT22;7258;50.376;8.742;2022-09-09T05:55:17;16.20;99.90
14349;DHT22;7258;50.376;8.742;2022-09-09T05:57:20;16.20;99.90
14349;DHT22;7258;50.376;8.742;2022-09-09T05:59:23;16.20;99.90
14349;DHT22;7258;50.376;8.742;2022-09-09T06:01:27;16.20;99.90
14349;DHT22;7258;50.376;8.742;2022-09-09T06:03:30;16.10;99.90
14349;DHT22;7258;50.376;8.742;2022-09-09T06:05:33;16.10;99.90
14349;DHT22;7258;50.376;8.742;2022-09-09T06:07:38;16.10;99.90
14349;DHT22;7258;50.376;8.742;2022-09-09T06:09:43;16.10;99.90
14349;DHT22;7258;50.376;8.742;2022-09-09T06:11:46;16.10;99.90
14349;DHT22;7258;50.376;8.742;2022-09-09T06:13:49;16.20;99.90
14349;DHT22;7258;50.376;8.742;2022-09-09T06:15:55;16.20;99.90
14349;DHT22;7258;50.376;8.742;2022-09-09T06:17:58;16.10;99.90
14349;DHT22;7258;50.376;8.742;2022-09-09T06:20:01;16.20;99.90
14349;DHT22;7258;50.376;8.742;2022-09-09T06:22:04;16.20;99.90
14349;DHT22;7258;50.376;8.742;2022-09-09T06:24:08;16.20;99.90
14349;DHT22;7258;50.376;8.742;2022-09-09T06:26:13;16.30;99.90
14349;DHT22;7258;50.376;8.742;2022-09-09T06:28:17;16.40;99.90
14349;DHT22;7258;50.376;8.742;2022-09-09T06:30:20;16.50;99.90
14349;DHT22;7258;50.376;8.742;2022-09-09T06:32:23;16.60;99.90
14349;DHT22;7258;50.376;8.742;2022-09-09T06:34:26;16.70;99.90
14349;DHT22;7258;50.376;8.742;2022-09-09T06:36:31;16.80;99.90
14349;DHT22;7258;50.376;8.742;2022-09-09T06:38:34;16.90;99.90
14349;DHT22;7258;50.376;8.742;2022-09-09T06:40:38;16.90;99.90
14349;DHT22;7258;50.376;8.742;2022-09-09T06:42:41;16.90;99.90
14349;DHT22;7258;50.376;8.742;2022-09-09T06:44:44;16.90;99.90
14349;DHT22;7258;50.376;8.742;2022-09-09T06:46:46;16.90;99.90
14349;DHT22;7258;50.376;8.742;2022-09-09T06:48:49;17.00;99.90
14349;DHT22;7258;50.376;8.742;2022-09-09T06:51:00;16.90;99.90
14349;DHT22;7258;50.376;8.742;2022-09-09T06:53:03;17.00;99.90
14349;DHT22;7258;50.376;8.742;2022-09-09T06:55:06;17.00;99.90
14349;DHT22;7258;50.376;8.742;2022-09-09T06:57:11;17.00;99.90
14349;DHT22;7258;50.376;8.742;2022-09-09T06:59:34;17.00;99.90
14349;DHT22;7258;50.376;8.742;2022-09-09T07:01:38;17.10;99.90
14349;DHT22;7258;50.376;8.742;2022-09-09T07:03:45;17.20;99.90
14349;DHT22;7258;50.376;8.742;2022-09-09T07:05:54;17.30;99.90
14349;DHT22;7258;50.376;8.742;2022-09-09T07:07:57;17.40;99.90
14349;DHT22;7258;50.376;8.742;2022-09-09T07:10:00;17.50;99.90
14349;DHT22;7258;50.376;8.742;2022-09-09T07:12:03;17.60;99.90
14349;DHT22;7258;50.376;8.742;2022-09-09T07:14:09;17.60;99.90
14349;DHT22;7258;50.376;8.742;2022-09-09T07:16:16;17.60;99.90
14349;DHT22;7258;50.376;8.742;2022-09-09T07:18:19;17.60;99.90
14349;DHT22;7258;50.376;8.742;2022-09-09T07:20:22;17.60;99.90
14349;DHT22;7258;50.376;8.742;2022-09-09T07:22:25;17.60;99.90
14349;DHT22;7258;50.376;8.742;2022-09-09T07:24:30;17.60;99.90
14349;DHT22;7258;50.376;8.742;2022-09-09T07:26:33;17.60;99.90
14349;DHT22;7258;50.376;8.742;2022-09-09T07:28:37;17.70;99.90
14349;DHT22;7258;50.376;8.742;2022-09-09T07:30:42;17.80;99.90
14349;DHT22;7258;50.376;8.742;2022-09-09T07:32:45;17.90;99.90
14349;DHT22;7258;50.376;8.742;2022-09-09T07:34:47;18.00;99.90
14349;DHT22;7258;50.376;8.742;2022-09-09T07:36:51;18.00;99.90
14349;DHT22;7258;50.376;8.742;2022-09-09T07:38:57;18.10;99.90
14349;DHT22;7258;50.376;8.742;2022-09-09T07:41:04;18.10;99.90
14349;DHT22;7258;50.376;8.742;2022-09-09T07:43:09;18.20;99.90
14349;DHT22;7258;50.376;8.742;2022-09-09T07:45:17;18.20;99.90
14349;DHT22;7258;50.376;8.742;2022-09-09T07:47:21;18.20;99.90
14349;DHT22;7258;50.376;8.742;2022-09-09T07:49:26;18.30;99.90
14349;DHT22;7258;50.376;8.742;2022-09-09T07:51:35;18.30;99.90
14349;DHT22;7258;50.376;8.742;2022-09-09T07:53:38;18.40;99.90
14349;DHT22;7258;50.376;8.742;2022-09-09T07:55:41;18.40;99.90
14349;DHT22;7258;50.376;8.742;2022-09-09T07:57:44;18.40;99.90
14349;DHT22;7258;50.376;8.742;2022-09-09T07:59:47;18.40;99.90
14349;DHT22;7258;50.376;8.742;2022-09-09T08:01:51;18.50;99.90
14349;DHT22;7258;50.376;8.742;2022-09-09T08:03:59;18.50;99.90
14349;DHT22;7258;50.376;8.742;2022-09-09T08:06:02;18.50;99.90
14349;DHT22;7258;50.376;8.742;2022-09-09T08:08:06;18.50;99.90
14349;DHT22;7258;50.376;8.742;2022-09-09T08:10:10;18.60;99.90
14349;DHT22;7258;50.376;8.742;2022-09-09T08:12:13;18.60;99.90
14349;DHT22;7258;50.376;8.742;2022-09-09T08:14:16;18.60;99.90
14349;DHT22;7258;50.376;8.742;2022-09-09T08:16:21;18.60;99.90
14349;DHT22;7258;50.376;8.742;2022-09-09T08:18:24;18.60;99.90
14349;DHT22;7258;50.376;8.742;2022-09-09T08:20:30;18.40;99.90
14349;DHT22;7258;50.376;8.742;2022-09-09T08:22:33;18.40;99.90
14349;DHT22;7258;50.376;8.742;2022-09-09T08:24:37;18.40;99.90
14349;DHT22;7258;50.376;8.742;2022-09-09T08:26:42;18.40;99.90
14349;DHT22;7258;50.376;8.742;2022-09-09T08:28:46;18.40;99.90
14349;DHT22;7258;50.376;8.742;2022-09-09T08:30:48;18.50;99.90
14349;DHT22;7258;50.376;8.742;2022-09-09T08:32:52;18.60;99.90
14349;DHT22;7258;50.376;8.742;2022-09-09T08:34:56;18.70;99.90
14349;DHT22;7258;50.376;8.742;2022-09-09T08:37:03;18.80;99.90
14349;DHT22;7258;50.376;8.742;2022-09-09T08:39:07;18.80;99.90
14349;DHT22;7258;50.376;8.742;2022-09-09T08:41:30;18.80;99.90
14349;DHT22;7258;50.376;8.742;2022-09-09T08:43:35;18.80;99.90
14349;DHT22;7258;50.376;8.742;2022-09-09T08:45:49;18.80;99.90
14349;DHT22;7258;50.376;8.742;2022-09-09T08:50:26;18.80;99.90
14349;DHT22;7258;50.376;8.742;2022-09-09T08:52:37;18.90;99.90
14349;DHT22;7258;50.376;8.742;2022-09-09T08:54:40;18.90;99.90
14349;DHT22;7258;50.376;8.742;2022-09-09T08:56:53;19.00;99.90
14349;DHT22;7258;50.376;8.742;2022-09-09T08:59:00;19.00;99.90
14349;DHT22;7258;50.376;8.742;2022-09-09T09:01:19;19.20;99.90
14349;DHT22;7258;50.376;8.742;2022-09-09T09:03:30;19.30;99.90
14349;DHT22;7258;50.376;8.742;2022-09-09T09:05:40;19.40;99.90
14349;DHT22;7258;50.376;8.742;2022-09-09T09:07:52;19.50;99.90
14349;DHT22;7258;50.376;8.742;2022-09-09T09:10:03;19.60;99.90
14349;DHT22;7258;50.376;8.742;2022-09-09T09:12:28;19.60;99.90
14349;DHT22;7258;50.376;8.742;2022-09-09T09:14:34;19.70;99.90
14349;DHT22;7258;50.376;8.742;2022-09-09T09:16:42;19.70;99.90
14349;DHT22;7258;50.376;8.742;2022-09-09T09:18:51;19.60;99.90
14349;DHT22;7258;50.376;8.742;2022-09-09T09:21:01;19.50;99.90
14349;DHT22;7258;50.376;8.742;2022-09-09T09:23:15;19.40;99.90
14349;DHT22;7258;50.376;8.742;2022-09-09T09:25:22;19.20;99.90
14349;DHT22;7258;50.376;8.742;2022-09-09T09:27:31;19.20;99.90
14349;DHT22;7258;50.376;8.742;2022-09-09T09:29:34;19.10;99.90
14349;DHT22;7258;50.376;8.742;2022-09-09T09:31:59;19.00;99.90
14349;DHT22;7258;50.376;8.742;2022-09-09T09:34:04;18.90;99.90
14349;DHT22;7258;50.376;8.742;2022-09-09T09:36:07;18.80;99.90
14349;DHT22;7258;50.376;8.742;2022-09-09T09:38:16;18.60;99.90
14349;DHT22;7258;50.376;8.742;2022-09-09T09:40:48;18.40;99.90
14349;DHT22;7258;50.376;8.742;2022-09-09T09:42:54;18.30;99.90
14349;DHT22;7258;50.376;8.742;2022-09-09T09:45:07;18.20;99.90
14349;DHT22;7258;50.376;8.742;2022-09-09T09:47:13;18.20;99.90
14349;DHT22;7258;50.376;8.742;2022-09-09T09:49:16;18.20;99.90
14349;DHT22;7258;50.376;8.742;2022-09-09T09:51:20;18.10;99.90
14349;DHT22;7258;50.376;8.742;2022-09-09T09:53:27;18.10;99.90
14349;DHT22;7258;50.376;8.742;2022-09-09T09:55:33;18.00;99.90
14349;DHT22;7258;50.376;8.742;2022-09-09T09:57:38;18.00;99.90
14349;DHT22;7258;50.376;8.742;2022-09-09T09:59:42;17.90;99.90
14349;DHT22;7258;50.376;8.742;2022-09-09T10:01:45;17.90;99.90
14349;DHT22;7258;50.376;8.742;2022-09-09T10:03:51;17.90;99.90
14349;DHT22;7258;50.376;8.742;2022-09-09T10:05:54;17.90;99.90
14349;DHT22;7258;50.376;8.742;2022-09-09T10:08:09;17.90;99.90
14349;DHT22;7258;50.376;8.742;2022-09-09T10:10:18;18.00;99.90
14349;DHT22;7258;50.376;8.742;2022-09-09T10:12:30;18.20;99.90
14349;DHT22;7258;50.376;8.742;2022-09-09T10:14:40;18.40;99.90
14349;DHT22;7258;50.376;8.742;2022-09-09T10:16:55;18.80;99.90
14349;DHT22;7258;50.376;8.742;2022-09-09T10:19:02;19.00;99.90
14349;DHT22;7258;50.376;8.742;2022-09-09T10:21:14;19.40;99.90
14349;DHT22;7258;50.376;8.742;2022-09-09T10:23:29;19.50;99.90
14349;DHT22;7258;50.376;8.742;2022-09-09T10:25:49;19.50;99.90
14349;DHT22;7258;50.376;8.742;2022-09-09T10:28:18;19.30;99.90
14349;DHT22;7258;50.376;8.742;2022-09-09T10:30:30;19.00;99.90
14349;DHT22;7258;50.376;8.742;2022-09-09T10:32:41;18.80;99.90
14349;DHT22;7258;50.376;8.742;2022-09-09T10:34:55;18.70;99.90
14349;DHT22;7258;50.376;8.742;2022-09-09T10:36:59;18.70;99.90
14349;DHT22;7258;50.376;8.742;2022-09-09T10:39:04;19.00;99.90
14349;DHT22;7258;50.376;8.742;2022-09-09T10:41:15;19.20;99.90
14349;DHT22;7258;50.376;8.742;2022-09-09T10:43:29;19.40;99.90
14349;DHT22;7258;50.376;8.742;2022-09-09T10:45:45;19.60;99.90
14349;DHT22;7258;50.376;8.742;2022-09-09T10:48:01;19.90;99.90
14349;DHT22;7258;50.376;8.742;2022-09-09T10:50:27;20.20;99.90
14349;DHT22;7258;50.376;8.742;2022-09-09T10:52:59;20.40;99.90
14349;DHT22;7258;50.376;8.742;2022-09-09T10:55:09;20.60;99.90
14349;DHT22;7258;50.376;8.742;2022-09-09T10:57:18;20.70;99.90
14349;DHT22;7258;50.376;8.742;2022-09-09T10:59:27;21.00;99.90
14349;DHT22;7258;50.376;8.742;2022-09-09T11:01:36;21.20;99.90
14349;DHT22;7258;50.376;8.742;2022-09-09T11:03:40;21.40;99.90
14349;DHT22;7258;50.376;8.742;2022-09-09T11:05:45;21.40;99.90
14349;DHT22;7258;50.376;8.742;2022-09-09T11:07:52;21.50;99.90
14349;DHT22;7258;50.376;8.742;2022-09-09T11:10:01;21.60;99.90
14349;DHT22;7258;50.376;8.742;2022-09-09T11:12:05;21.60;99.90
14349;DHT22;7258;50.376;8.742;2022-09-09T11:14:21;21.70;99.90
14349;DHT22;7258;50.376;8.742;2022-09-09T11:16:29;21.90;99.90
14349;DHT22;7258;50.376;8.742;2022-09-09T11:18:36;21.80;99.90
14349;DHT22;7258;50.376;8.742;2022-09-09T11:20:42;21.80;99.90
14349;DHT22;7258;50.376;8.742;2022-09-09T11:22:50;21.70;99.90
14349;DHT22;7258;50.376;8.742;2022-09-09T11:24:59;21.50;99.90
14349;DHT22;7258;50.376;8.742;2022-09-09T11:27:14;21.50;99.90
14349;DHT22;7258;50.376;8.742;2022-09-09T11:29:36;21.40;99.90
14349;DHT22;7258;50.376;8.742;2022-09-09T11:31:46;21.50;99.90
14349;DHT22;7258;50.376;8.742;2022-09-09T11:34:10;21.50;99.90
14349;DHT22;7258;50.376;8.742;2022-09-09T11:36:35;21.40;99.90
14349;DHT22;7258;50.376;8.742;2022-09-09T11:38:45;21.30;99.90
14349;DHT22;7258;50.376;8.742;2022-09-09T11:40:56;21.10;99.90
14349;DHT22;7258;50.376;8.742;2022-09-09T11:43:03;21.00;99.90
14349;DHT22;7258;50.376;8.742;2022-09-09T11:45:24;20.90;99.90
14349;DHT22;7258;50.376;8.742;2022-09-09T11:47:31;21.00;99.90
14349;DHT22;7258;50.376;8.742;2022-09-09T11:49:41;21.00;99.90
14349;DHT22;7258;50.376;8.742;2022-09-09T11:51:44;21.10;99.90
14349;DHT22;7258;50.376;8.742;2022-09-09T11:53:49;21.20;99.90
14349;DHT22;7258;50.376;8.742;2022-09-09T11:56:08;21.30;99.90
14349;DHT22;7258;50.376;8.742;2022-09-09T11:58:17;21.50;99.90
14349;DHT22;7258;50.376;8.742;2022-09-09T12:00:35;21.60;99.90
14349;DHT22;7258;50.376;8.742;2022-09-09T12:02:48;21.60;99.90
14349;DHT22;7258;50.376;8.742;2022-09-09T12:04:58;21.50;99.90
14349;DHT22;7258;50.376;8.742;2022-09-09T12:07:05;21.40;99.90
14349;DHT22;7258;50.376;8.742;2022-09-09T12:09:32;21.40;99.90
14349;DHT22;7258;50.376;8.742;2022-09-09T12:11:36;21.30;99.90
14349;DHT22;7258;50.376;8.742;2022-09-09T12:13:39;21.40;99.90
14349;DHT22;7258;50.376;8.742;2022-09-09T12:15:49;21.40;99.90
14349;DHT22;7258;50.376;8.742;2022-09-09T12:17:55;21.50;99.90
14349;DHT22;7258;50.376;8.742;2022-09-09T12:20:13;21.70;99.90
14349;DHT22;7258;50.376;8.742;2022-09-09T12:22:24;21.80;99.90
14349;DHT22;7258;50.376;8.742;2022-09-09T12:24:33;21.80;99.90
14349;DHT22;7258;50.376;8.742;2022-09-09T12:26:41;21.90;99.90
14349;DHT22;7258;50.376;8.742;2022-09-09T12:28:53;21.90;99.90
14349;DHT22;7258;50.376;8.742;2022-09-09T12:31:05;21.90;99.90
14349;DHT22;7258;50.376;8.742;2022-09-09T12:33:11;21.90;99.90
14349;DHT22;7258;50.376;8.742;2022-09-09T12:35:20;21.90;99.90
14349;DHT22;7258;50.376;8.742;2022-09-09T12:37:28;22.00;99.90
14349;DHT22;7258;50.376;8.742;2022-09-09T12:39:35;22.00;99.90
14349;DHT22;7258;50.376;8.742;2022-09-09T12:41:40;22.00;99.80
14349;DHT22;7258;50.376;8.742;2022-09-09T12:43:43;21.90;99.50
14349;DHT22;7258;50.376;8.742;2022-09-09T12:45:46;21.90;99.20
14349;DHT22;7258;50.376;8.742;2022-09-09T12:47:55;21.80;99.60
14349;DHT22;7258;50.376;8.742;2022-09-09T12:49:59;21.90;99.10
14349;DHT22;7258;50.376;8.742;2022-09-09T12:52:04;22.00;99.00
14349;DHT22;7258;50.376;8.742;2022-09-09T12:54:13;22.00;98.80
14349;DHT22;7258;50.376;8.742;2022-09-09T12:56:21;22.10;97.90
14349;DHT22;7258;50.376;8.742;2022-09-09T12:58:25;22.00;96.60
14349;DHT22;7258;50.376;8.742;2022-09-09T13:00:29;21.90;96.70
14349;DHT22;7258;50.376;8.742;2022-09-09T13:02:32;21.80;96.70
14349;DHT22;7258;50.376;8.742;2022-09-09T13:04:37;21.90;96.80
14349;DHT22;7258;50.376;8.742;2022-09-09T13:06:40;22.10;96.70
14349;DHT22;7258;50.376;8.742;2022-09-09T13:08:42;22.30;96.60
14349;DHT22;7258;50.376;8.742;2022-09-09T13:10:48;22.70;96.60
14349;DHT22;7258;50.376;8.742;2022-09-09T13:12:59;22.90;95.30
14349;DHT22;7258;50.376;8.742;2022-09-09T13:15:03;22.90;94.70
14349;DHT22;7258;50.376;8.742;2022-09-09T13:17:15;22.90;94.70
14349;DHT22;7258;50.376;8.742;2022-09-09T13:19:20;23.00;95.00
14349;DHT22;7258;50.376;8.742;2022-09-09T13:21:33;23.10;95.40
14349;DHT22;7258;50.376;8.742;2022-09-09T13:23:37;23.40;94.90
14349;DHT22;7258;50.376;8.742;2022-09-09T13:25:41;23.50;94.50
14349;DHT22;7258;50.376;8.742;2022-09-09T13:27:52;23.60;94.20
14349;DHT22;7258;50.376;8.742;2022-09-09T13:29:56;23.60;94.00
14349;DHT22;7258;50.376;8.742;2022-09-09T13:32:04;23.40;93.10
14349;DHT22;7258;50.376;8.742;2022-09-09T13:34:12;23.10;93.30
14349;DHT22;7258;50.376;8.742;2022-09-09T13:36:28;23.10;92.90
14349;DHT22;7258;50.376;8.742;2022-09-09T13:38:36;23.10;92.60